Accueil
METAR-TAF:

METAR-TAF

Aéroports :

Oxford, Angleterre

Aéroport d'Oxford Kidlington

latitude: 51-50-13N, longitude: 1-19-12W, altitude: 82 m

Observation

Le bulletin a été fait il y a 7 heures et 42 minutes, à 21:20 UTC
Vent 5 kt de sud/sud-ouest
Température 15°C
Humidité 100%
Pression 1010 hPa
Visibilité 10 km ou plus
Quelques nuages à une hauteur de 4000 ft

METAR: EGTK 172120Z 21005KT 9999 FEW040 15/15 Q1010

Heure: 06:02 (05:02 UTC)

Prévision

Le bulletin a été fait il y a 9 heures et 29 minutes, à 19:33 UTC
Prévision valable du 17 à 19 UTC au 17 à 22 UTC
Vent 6 kt de sud-ouest
Visibilité 10 km ou plus
Quelques nuages à une hauteur de 4000 ft
Probabilité 40% :
Temporairement
du 17 à 19 UTC au 17 à 21 UTC
Visibilité: 4000 m
averses de pluie

TAF: EGTK 171933Z 1719/1722 22006KT 9999 FEW040 PROB40 TEMPO 1719/1721 4000 SHRA

Observations et prévisions météorologiques de plus de 4000 aéroports (messages METAR et TAF).

Les stations disponibles sont représentées par des disques jaunes et rouges sur la carte.

Passer la souris dessus pour voir le nom de la station.

Cliquer dessus pour voir les observations et prévisions météorologiques.

Pour changer de carte: cliquez sur les boutons verts avec une croix noire pour zoomer, sur le bouton vert avec un tiret pour effectuer un zoom arrière, ou sur les flèches vertes pour les cartes adjacentes.


METAR-TAF: